Dauntless Aviation
Airports North America United States Colorado
98CO

NCMC HELIPORT

GREELEY, CO, USA

Airport Info
Suggest Updated Information for this Airport

Location

Latitude / Longitude: 40°24'53"N / 104°42'39"W
  40°24.8908'N / 104°42.6508'W
  40.4148 / -104.7108
Elevation: 4882.0 ft. (estimated)
Variation: 12E (1985)
From city: 00 miles N of GREELEY, CO

Operations

Facility use: Private
Sectional chart: DENVER
Control tower: no
Boundary ARTCC: DENVER
FSS: DENVER [1-800-WX-BRIEF]
Segmented circle: no

Communications

Nearby radio navigation aids

VOR radial/distance VOR name Freq Var
GLL 234oT/9.0 GILL VORTAC 114.20 13E
DVV 353oT/31.5 MILE HIGH VORTAC 114.70 11E
BJC 33oT/36.0 JEFFCO VOR/DME 115.40 11E
DEN 356oT/36.2 DENVER VOR/DME 117.90 11E
 
NDB name Hdg/Dist Freq Var ID

Services

Runway Information

Helipad H1

Dimensions: 40 x 40 ft.
Surface: PORTLAND CEMENT CONCRETE,NO SPECIAL SURFACE TREATMENT
Latitude: 40-24-53.4500N
Longitude: 104-42-39.0500W
Elevation: 4882.0 ft. ft.
 

Additional Remarks

Instrument Procedures

No published instrument procedures available
Topographic chart at:
Satellite photo at:
Airport distance calculator
From:
Weather Reports

METAR

KGXY
4.3nm NE
KGXY 280956Z AUTO 00000KT 10SM CLR 13/08 A2994 RMK AO2 SLP091 T01330078
KFNL
14.1nm W
KFNL 280956Z AUTO 15003KT 10SM CLR 16/07 A2995 RMK AO2 SLP073 T01560067
KLMO
25.6nm SW
KLMO 281034Z AUTO 00000KT 10SM CLR 15/08 A2996 RMK AO2 T01450083
KEIK
28.5nm S
KEIK 281034Z AUTO 25003KT 10SM CLR 18/06 A2996 RMK AO2 T01770057
KBDU
33.1nm SW
KBDU 281036Z AUTO 01004KT 10SM CLR 15/06 A2996 RMK AO2
KDEN
34.0nm SE
KDEN 280953Z 18005KT 10SM FEW220 15/04 A2997 RMK AO2 SLP056 T01500039

TAF

KDEN
34.0nm SE
KDEN 280900Z 2809/2912 14008KT P6SM FEW150 FM281200 21007KT P6SM FEW150 FM281600 12010KT P6SM FEW200 FM282100 15011KT P6SM VCTS SCT070CB BKN120 FM290200 18011KT P6SM SCT100 SCT200 FM290600 21010KT P6SM SCT200
KBJC
35.7nm S
KBJC 280536Z 2806/2906 VRB05KT P6SM SCT150 FM281500 12008KT P6SM FEW200 FM282100 15011KT P6SM VCTS SCT070CB BKN120 FM290200 26009KT P6SM SCT100 SCT200
Safelog

 

Dauntless Aviation

© 2007-2017 Dauntless Aviation, all rights reserved
Information provided via PilotNav comes from a variety of official and unofficial data sources. As errors are possible, do not use PilotNav for primary flight planning purposes. Verify any information that you receive via PilotNav with current and canonical charts and other official documents. The material in this database is subject to database copyrights held by Dauntless Aviation and may not be copied without the express permission of Dauntless Aviation - licenses for use of part of all of this data are available for purchase; enquire via the Dauntless Aviation helpdesk. A number of mechanisms and markers exist in the database to protect against and identify infringement / copyright. Automated queries against this website are stictly prohibited, and all activity is logged and analyzed.